Terminal Aerodrome Forecast
Issued by NWS

Home | Current Version | Previous Version | Text Only | Print | Product List | Glossary On
Versions: 1 2 3 4 5 6 7 8 9 10 11 12 13 14
000
FTUS44 KOUN 282320
TAFGAG
TAF
KGAG 282320Z 2900/2924 VRB05G12KT P6SM VCTS SCT050CB SCT120 SCT250
      TEMPO 2900/2902 VRB25G35KT 3SM TSRA BKN035CB OVC100
     FM290200 13006KT P6SM -RA OVC050
     FM290400 11006KT P6SM SCT120 BKN200 PROB30 2920/2924 6SM TSRA
      BKN050CB=

USA.gov is the U.S. government's official web portal to all federal, state and local government web resources and services.